CheckWX is a tool to help pilots better visualize weather data.  It is not intended as a substitute for an official pre-flight weather briefing.

17:51:18 UTC

KAFJ METAR
Washington County Airport
Washington, Pennsylvania, USA
Current

55 mins ago

KAFJ 201656Z AUTO 31007KT 10SM SCT035 M01/M09 A3050 RMK AO2 SLP342 T10111089 PWINO FZRANO
Observed
Feb-20 @ 16:56 UTC
Wind
  • 310° at 7 KTS
Visibility
10 SM
Flight Rules
VFR
Cloud Levels
  • Scattered at 3,500' AGL
Temperature
-1°C / 30°F
Dewpoint
-9°C / 16°F
Humidity
55%
Altimeter
30.5" Hg
Pressure
1032.82 hPa
Previous

2 hours ago

KAFJ 201556Z AUTO 33004KT 10SM FEW075 OVC120 M02/M08 A3051 RMK AO2 SLP346 T10171078 PWINO FZRANO
Observed
Feb-20 @ 15:56 UTC
Wind
  • 330° at 4 KTS
Visibility
10 SM
Flight Rules
VFR
Cloud Levels
  • Few at 7,500' AGL
  • Overcast at 12,000' AGL
Temperature
-2°C / 28°F
Dewpoint
-8°C / 18°F
Humidity
64%
Altimeter
30.51" Hg
Pressure
1033.22 hPa
Previous

3 hours ago

KAFJ 201456Z AUTO 34004KT 10SM OVC110 M03/M08 A3051 RMK AO2 SLP349 T10281078 53017 PWINO FZRANO
Observed
Feb-20 @ 14:56 UTC
Wind
  • 340° at 4 KTS
Visibility
10 SM
Flight Rules
VFR
Cloud Levels
  • Overcast at 11,000' AGL
Temperature
-3°C / 27°F
Dewpoint
-8°C / 18°F
Humidity
69%
Altimeter
30.51" Hg
Pressure
1033.22 hPa